sensor_id;sensor_type;location;lat;lon;timestamp;P1;durP1;ratioP1;P2;durP2;ratioP2
5465;SDS011;2755;50.728;7.108;2022-11-21T00:00:20;12.73;;;3.17;;
5465;SDS011;2755;50.728;7.108;2022-11-21T00:02:46;9.40;;;3.20;;
5465;SDS011;2755;50.728;7.108;2022-11-21T00:05:12;10.07;;;3.20;;
5465;SDS011;2755;50.728;7.108;2022-11-21T00:07:38;11.37;;;2.93;;
5465;SDS011;2755;50.728;7.108;2022-11-21T00:10:04;20.90;;;3.90;;
5465;SDS011;2755;50.728;7.108;2022-11-21T00:12:30;12.93;;;2.60;;
5465;SDS011;2755;50.728;7.108;2022-11-21T00:14:55;12.47;;;2.70;;
5465;SDS011;2755;50.728;7.108;2022-11-21T00:17:21;17.83;;;4.20;;
5465;SDS011;2755;50.728;7.108;2022-11-21T00:19:47;17.13;;;5.23;;
5465;SDS011;2755;50.728;7.108;2022-11-21T00:22:13;9.60;;;2.40;;
5465;SDS011;2755;50.728;7.108;2022-11-21T00:24:38;10.70;;;3.10;;
5465;SDS011;2755;50.728;7.108;2022-11-21T00:27:04;18.20;;;3.30;;
5465;SDS011;2755;50.728;7.108;2022-11-21T00:29:30;11.57;;;3.10;;
5465;SDS011;2755;50.728;7.108;2022-11-21T00:31:55;16.53;;;2.60;;
5465;SDS011;2755;50.728;7.108;2022-11-21T00:34:21;21.50;;;3.47;;
5465;SDS011;2755;50.728;7.108;2022-11-21T00:36:46;11.50;;;3.40;;
5465;SDS011;2755;50.728;7.108;2022-11-21T00:39:12;15.10;;;3.00;;
5465;SDS011;2755;50.728;7.108;2022-11-21T00:41:38;13.90;;;3.47;;
5465;SDS011;2755;50.728;7.108;2022-11-21T00:44:03;12.87;;;3.47;;
5465;SDS011;2755;50.728;7.108;2022-11-21T00:46:29;11.00;;;2.63;;
5465;SDS011;2755;50.728;7.108;2022-11-21T00:48:55;13.80;;;3.40;;
5465;SDS011;2755;50.728;7.108;2022-11-21T00:51:20;13.90;;;2.80;;
5465;SDS011;2755;50.728;7.108;2022-11-21T00:53:46;14.50;;;3.30;;
5465;SDS011;2755;50.728;7.108;2022-11-21T00:56:12;17.60;;;2.70;;
5465;SDS011;2755;50.728;7.108;2022-11-21T00:58:37;9.13;;;3.07;;
5465;SDS011;2755;50.728;7.108;2022-11-21T01:01:04;14.23;;;2.80;;
5465;SDS011;2755;50.728;7.108;2022-11-21T01:03:34;11.27;;;2.80;;
5465;SDS011;2755;50.728;7.108;2022-11-21T01:06:10;17.70;;;3.57;;
5465;SDS011;2755;50.728;7.108;2022-11-21T01:08:38;13.60;;;3.40;;
5465;SDS011;2755;50.728;7.108;2022-11-21T01:11:06;10.87;;;2.63;;
5465;SDS011;2755;50.728;7.108;2022-11-21T01:13:34;18.30;;;3.60;;
5465;SDS011;2755;50.728;7.108;2022-11-21T01:16:19;8.63;;;3.07;;
5465;SDS011;2755;50.728;7.108;2022-11-21T01:18:47;6.53;;;2.90;;
5465;SDS011;2755;50.728;7.108;2022-11-21T01:23:43;13.90;;;3.30;;
5465;SDS011;2755;50.728;7.108;2022-11-21T01:26:10;11.00;;;3.17;;
5465;SDS011;2755;50.728;7.108;2022-11-21T01:28:38;12.00;;;2.77;;
5465;SDS011;2755;50.728;7.108;2022-11-21T01:31:04;11.23;;;2.87;;
5465;SDS011;2755;50.728;7.108;2022-11-21T01:33:32;11.73;;;3.53;;
5465;SDS011;2755;50.728;7.108;2022-11-21T01:36:14;16.27;;;4.03;;
5465;SDS011;2755;50.728;7.108;2022-11-21T01:38:43;18.73;;;2.97;;
5465;SDS011;2755;50.728;7.108;2022-11-21T01:41:11;12.97;;;2.67;;
5465;SDS011;2755;50.728;7.108;2022-11-21T01:43:39;23.23;;;3.07;;
5465;SDS011;2755;50.728;7.108;2022-11-21T01:48:38;15.40;;;3.47;;
5465;SDS011;2755;50.728;7.108;2022-11-21T01:54:09;14.30;;;3.27;;
5465;SDS011;2755;50.728;7.108;2022-11-21T01:56:40;12.90;;;3.03;;
5465;SDS011;2755;50.728;7.108;2022-11-21T01:59:17;17.03;;;3.70;;
5465;SDS011;2755;50.728;7.108;2022-11-21T02:01:47;13.53;;;3.27;;
5465;SDS011;2755;50.728;7.108;2022-11-21T02:04:15;18.73;;;3.43;;
5465;SDS011;2755;50.728;7.108;2022-11-21T02:06:41;21.27;;;3.23;;
5465;SDS011;2755;50.728;7.108;2022-11-21T02:09:08;23.83;;;3.70;;
5465;SDS011;2755;50.728;7.108;2022-11-21T02:11:38;12.60;;;3.53;;
5465;SDS011;2755;50.728;7.108;2022-11-21T02:14:07;15.73;;;4.07;;
5465;SDS011;2755;50.728;7.108;2022-11-21T02:16:33;14.67;;;2.83;;
5465;SDS011;2755;50.728;7.108;2022-11-21T02:18:59;13.43;;;3.30;;
5465;SDS011;2755;50.728;7.108;2022-11-21T02:21:46;10.07;;;2.63;;
5465;SDS011;2755;50.728;7.108;2022-11-21T02:24:24;6.80;;;2.80;;
5465;SDS011;2755;50.728;7.108;2022-11-21T02:27:03;7.10;;;2.53;;
5465;SDS011;2755;50.728;7.108;2022-11-21T02:29:29;8.80;;;2.60;;
5465;SDS011;2755;50.728;7.108;2022-11-21T02:31:58;8.80;;;2.63;;
5465;SDS011;2755;50.728;7.108;2022-11-21T02:34:26;11.13;;;2.60;;
5465;SDS011;2755;50.728;7.108;2022-11-21T02:36:52;19.67;;;3.37;;
5465;SDS011;2755;50.728;7.108;2022-11-21T02:39:19;13.83;;;3.17;;
5465;SDS011;2755;50.728;7.108;2022-11-21T02:45:18;7.30;;;2.80;;
5465;SDS011;2755;50.728;7.108;2022-11-21T02:47:47;10.20;;;2.37;;
5465;SDS011;2755;50.728;7.108;2022-11-21T02:50:27;13.03;;;3.77;;
5465;SDS011;2755;50.728;7.108;2022-11-21T02:52:55;7.10;;;2.10;;
5465;SDS011;2755;50.728;7.108;2022-11-21T02:55:21;8.87;;;2.43;;
5465;SDS011;2755;50.728;7.108;2022-11-21T02:57:47;9.40;;;2.57;;
5465;SDS011;2755;50.728;7.108;2022-11-21T03:00:13;21.47;;;3.20;;
5465;SDS011;2755;50.728;7.108;2022-11-21T03:02:40;7.80;;;2.33;;
5465;SDS011;2755;50.728;7.108;2022-11-21T03:05:06;4.77;;;1.90;;
5465;SDS011;2755;50.728;7.108;2022-11-21T03:07:33;8.23;;;2.57;;
5465;SDS011;2755;50.728;7.108;2022-11-21T03:09:59;11.83;;;2.40;;
5465;SDS011;2755;50.728;7.108;2022-11-21T03:12:25;7.97;;;2.43;;
5465;SDS011;2755;50.728;7.108;2022-11-21T03:14:50;7.97;;;2.40;;
5465;SDS011;2755;50.728;7.108;2022-11-21T03:17:16;10.77;;;2.50;;
5465;SDS011;2755;50.728;7.108;2022-11-21T03:19:42;7.20;;;2.30;;
5465;SDS011;2755;50.728;7.108;2022-11-21T03:22:08;10.33;;;2.50;;
5465;SDS011;2755;50.728;7.108;2022-11-21T03:24:34;12.97;;;2.67;;
5465;SDS011;2755;50.728;7.108;2022-11-21T03:27:00;5.93;;;1.90;;
5465;SDS011;2755;50.728;7.108;2022-11-21T03:29:26;7.23;;;2.40;;
5465;SDS011;2755;50.728;7.108;2022-11-21T03:31:51;9.63;;;2.23;;
5465;SDS011;2755;50.728;7.108;2022-11-21T03:34:17;10.50;;;2.60;;
5465;SDS011;2755;50.728;7.108;2022-11-21T03:36:42;11.70;;;2.97;;
5465;SDS011;2755;50.728;7.108;2022-11-21T03:39:08;6.83;;;2.53;;
5465;SDS011;2755;50.728;7.108;2022-11-21T03:41:34;14.43;;;2.60;;
5465;SDS011;2755;50.728;7.108;2022-11-21T03:44:07;9.50;;;2.53;;
5465;SDS011;2755;50.728;7.108;2022-11-21T03:46:35;8.77;;;2.23;;
5465;SDS011;2755;50.728;7.108;2022-11-21T03:49:06;7.83;;;2.43;;
5465;SDS011;2755;50.728;7.108;2022-11-21T03:51:32;10.27;;;3.23;;
5465;SDS011;2755;50.728;7.108;2022-11-21T03:53:58;11.10;;;2.27;;
5465;SDS011;2755;50.728;7.108;2022-11-21T03:56:24;5.40;;;2.20;;
5465;SDS011;2755;50.728;7.108;2022-11-21T03:58:51;11.17;;;2.37;;
5465;SDS011;2755;50.728;7.108;2022-11-21T04:01:17;7.13;;;2.33;;
5465;SDS011;2755;50.728;7.108;2022-11-21T04:03:43;10.00;;;1.57;;
5465;SDS011;2755;50.728;7.108;2022-11-21T04:06:09;6.00;;;1.70;;
5465;SDS011;2755;50.728;7.108;2022-11-21T04:08:36;5.40;;;1.70;;
5465;SDS011;2755;50.728;7.108;2022-11-21T04:11:02;4.20;;;2.00;;
5465;SDS011;2755;50.728;7.108;2022-11-21T04:13:28;8.97;;;2.47;;
5465;SDS011;2755;50.728;7.108;2022-11-21T04:15:53;9.70;;;2.20;;
5465;SDS011;2755;50.728;7.108;2022-11-21T04:18:19;3.43;;;2.10;;
5465;SDS011;2755;50.728;7.108;2022-11-21T04:20:44;9.13;;;2.57;;
5465;SDS011;2755;50.728;7.108;2022-11-21T04:23:10;6.10;;;2.27;;
5465;SDS011;2755;50.728;7.108;2022-11-21T04:25:36;12.53;;;2.17;;
5465;SDS011;2755;50.728;7.108;2022-11-21T04:28:02;6.93;;;2.17;;
5465;SDS011;2755;50.728;7.108;2022-11-21T04:30:28;4.20;;;1.93;;
5465;SDS011;2755;50.728;7.108;2022-11-21T04:32:54;5.23;;;2.33;;
5465;SDS011;2755;50.728;7.108;2022-11-21T04:35:21;9.63;;;2.53;;
5465;SDS011;2755;50.728;7.108;2022-11-21T04:37:47;3.00;;;1.77;;
5465;SDS011;2755;50.728;7.108;2022-11-21T04:40:13;9.40;;;1.60;;
5465;SDS011;2755;50.728;7.108;2022-11-21T04:42:46;10.00;;;2.50;;
5465;SDS011;2755;50.728;7.108;2022-11-21T04:45:13;4.67;;;1.90;;
5465;SDS011;2755;50.728;7.108;2022-11-21T04:47:40;5.40;;;2.37;;
5465;SDS011;2755;50.728;7.108;2022-11-21T04:50:08;8.77;;;2.50;;
5465;SDS011;2755;50.728;7.108;2022-11-21T04:52:35;5.30;;;2.47;;
5465;SDS011;2755;50.728;7.108;2022-11-21T04:55:01;9.43;;;2.80;;
5465;SDS011;2755;50.728;7.108;2022-11-21T04:57:28;8.07;;;2.83;;
5465;SDS011;2755;50.728;7.108;2022-11-21T04:59:54;5.83;;;2.37;;
5465;SDS011;2755;50.728;7.108;2022-11-21T05:02:20;9.83;;;2.73;;
5465;SDS011;2755;50.728;7.108;2022-11-21T05:04:46;6.63;;;3.20;;
5465;SDS011;2755;50.728;7.108;2022-11-21T05:07:12;3.43;;;2.50;;
5465;SDS011;2755;50.728;7.108;2022-11-21T05:09:38;4.40;;;2.80;;
5465;SDS011;2755;50.728;7.108;2022-11-21T05:12:03;4.50;;;2.70;;
5465;SDS011;2755;50.728;7.108;2022-11-21T05:14:48;5.90;;;2.50;;
5465;SDS011;2755;50.728;7.108;2022-11-21T05:17:14;9.03;;;2.60;;
5465;SDS011;2755;50.728;7.108;2022-11-21T05:19:39;9.10;;;2.00;;
5465;SDS011;2755;50.728;7.108;2022-11-21T05:22:05;3.33;;;1.90;;
5465;SDS011;2755;50.728;7.108;2022-11-21T05:24:31;4.93;;;2.33;;
5465;SDS011;2755;50.728;7.108;2022-11-21T05:26:56;6.57;;;2.40;;
5465;SDS011;2755;50.728;7.108;2022-11-21T05:29:22;8.43;;;2.83;;
5465;SDS011;2755;50.728;7.108;2022-11-21T05:31:48;3.23;;;2.40;;
5465;SDS011;2755;50.728;7.108;2022-11-21T05:34:13;2.37;;;2.03;;
5465;SDS011;2755;50.728;7.108;2022-11-21T05:36:39;10.53;;;2.70;;
5465;SDS011;2755;50.728;7.108;2022-11-21T05:39:04;3.13;;;2.13;;
5465;SDS011;2755;50.728;7.108;2022-11-21T05:41:30;5.47;;;2.57;;
5465;SDS011;2755;50.728;7.108;2022-11-21T05:43:55;3.10;;;2.10;;
5465;SDS011;2755;50.728;7.108;2022-11-21T05:46:22;5.70;;;3.03;;
5465;SDS011;2755;50.728;7.108;2022-11-21T05:48:49;5.77;;;2.13;;
5465;SDS011;2755;50.728;7.108;2022-11-21T05:51:16;5.50;;;2.70;;
5465;SDS011;2755;50.728;7.108;2022-11-21T05:53:43;3.03;;;2.30;;
5465;SDS011;2755;50.728;7.108;2022-11-21T05:56:10;3.40;;;2.67;;
5465;SDS011;2755;50.728;7.108;2022-11-21T05:58:37;3.40;;;2.60;;
5465;SDS011;2755;50.728;7.108;2022-11-21T06:01:04;4.73;;;2.30;;
5465;SDS011;2755;50.728;7.108;2022-11-21T06:03:32;3.40;;;2.20;;
5465;SDS011;2755;50.728;7.108;2022-11-21T06:08:28;7.00;;;3.50;;
5465;SDS011;2755;50.728;7.108;2022-11-21T06:10:55;4.77;;;3.10;;
5465;SDS011;2755;50.728;7.108;2022-11-21T06:13:21;2.63;;;2.43;;
5465;SDS011;2755;50.728;7.108;2022-11-21T06:15:56;5.40;;;2.80;;
5465;SDS011;2755;50.728;7.108;2022-11-21T06:18:24;10.17;;;2.27;;
5465;SDS011;2755;50.728;7.108;2022-11-21T06:20:50;4.70;;;2.30;;
5465;SDS011;2755;50.728;7.108;2022-11-21T06:23:16;2.87;;;2.57;;
5465;SDS011;2755;50.728;7.108;2022-11-21T06:25:42;4.27;;;2.70;;
5465;SDS011;2755;50.728;7.108;2022-11-21T06:28:08;3.40;;;2.60;;
5465;SDS011;2755;50.728;7.108;2022-11-21T06:30:34;8.67;;;3.70;;
5465;SDS011;2755;50.728;7.108;2022-11-21T06:33:01;4.90;;;2.13;;
5465;SDS011;2755;50.728;7.108;2022-11-21T06:35:28;7.23;;;3.03;;
5465;SDS011;2755;50.728;7.108;2022-11-21T06:37:55;3.10;;;2.67;;
5465;SDS011;2755;50.728;7.108;2022-11-21T06:40:20;4.63;;;2.50;;
5465;SDS011;2755;50.728;7.108;2022-11-21T06:42:46;4.33;;;2.50;;
5465;SDS011;2755;50.728;7.108;2022-11-21T06:45:12;6.07;;;2.50;;
5465;SDS011;2755;50.728;7.108;2022-11-21T06:47:37;9.03;;;3.10;;
5465;SDS011;2755;50.728;7.108;2022-11-21T06:50:03;5.07;;;3.10;;
5465;SDS011;2755;50.728;7.108;2022-11-21T06:52:31;2.87;;;2.57;;
5465;SDS011;2755;50.728;7.108;2022-11-21T06:54:57;5.57;;;3.10;;
5465;SDS011;2755;50.728;7.108;2022-11-21T06:57:23;3.70;;;2.57;;
5465;SDS011;2755;50.728;7.108;2022-11-21T06:59:49;5.03;;;2.77;;
5465;SDS011;2755;50.728;7.108;2022-11-21T07:02:15;4.17;;;3.73;;
5465;SDS011;2755;50.728;7.108;2022-11-21T07:04:41;4.17;;;2.93;;
5465;SDS011;2755;50.728;7.108;2022-11-21T07:07:06;7.07;;;3.40;;
5465;SDS011;2755;50.728;7.108;2022-11-21T07:09:32;3.00;;;2.70;;
5465;SDS011;2755;50.728;7.108;2022-11-21T07:12:00;6.57;;;3.20;;
5465;SDS011;2755;50.728;7.108;2022-11-21T07:14:45;4.20;;;3.10;;
5465;SDS011;2755;50.728;7.108;2022-11-21T07:17:11;6.40;;;2.90;;
5465;SDS011;2755;50.728;7.108;2022-11-21T07:19:37;4.90;;;2.97;;
5465;SDS011;2755;50.728;7.108;2022-11-21T07:22:03;4.10;;;3.00;;
5465;SDS011;2755;50.728;7.108;2022-11-21T07:24:28;6.13;;;2.97;;
5465;SDS011;2755;50.728;7.108;2022-11-21T07:26:54;4.43;;;2.67;;
5465;SDS011;2755;50.728;7.108;2022-11-21T07:29:20;7.50;;;2.77;;
5465;SDS011;2755;50.728;7.108;2022-11-21T07:31:46;6.80;;;2.60;;
5465;SDS011;2755;50.728;7.108;2022-11-21T07:34:11;3.33;;;2.73;;
5465;SDS011;2755;50.728;7.108;2022-11-21T07:36:37;5.73;;;3.00;;
5465;SDS011;2755;50.728;7.108;2022-11-21T07:39:03;10.20;;;3.80;;
5465;SDS011;2755;50.728;7.108;2022-11-21T07:41:30;9.43;;;4.13;;
5465;SDS011;2755;50.728;7.108;2022-11-21T07:43:56;9.40;;;4.40;;
5465;SDS011;2755;50.728;7.108;2022-11-21T07:46:22;6.63;;;3.77;;
5465;SDS011;2755;50.728;7.108;2022-11-21T07:48:48;3.90;;;3.10;;
5465;SDS011;2755;50.728;7.108;2022-11-21T07:51:13;3.30;;;3.00;;
5465;SDS011;2755;50.728;7.108;2022-11-21T07:53:39;3.50;;;2.80;;
5465;SDS011;2755;50.728;7.108;2022-11-21T07:56:05;4.53;;;2.90;;
5465;SDS011;2755;50.728;7.108;2022-11-21T07:58:33;5.33;;;3.40;;
5465;SDS011;2755;50.728;7.108;2022-11-21T08:01:03;5.40;;;2.87;;
5465;SDS011;2755;50.728;7.108;2022-11-21T08:03:29;4.50;;;3.00;;
5465;SDS011;2755;50.728;7.108;2022-11-21T08:05:56;7.03;;;3.80;;
5465;SDS011;2755;50.728;7.108;2022-11-21T08:08:24;5.33;;;3.67;;
5465;SDS011;2755;50.728;7.108;2022-11-21T08:10:51;6.30;;;3.40;;
5465;SDS011;2755;50.728;7.108;2022-11-21T08:13:17;10.30;;;4.47;;
5465;SDS011;2755;50.728;7.108;2022-11-21T08:15:42;5.40;;;3.40;;
5465;SDS011;2755;50.728;7.108;2022-11-21T08:18:12;4.90;;;3.40;;
5465;SDS011;2755;50.728;7.108;2022-11-21T08:20:40;6.20;;;2.80;;
5465;SDS011;2755;50.728;7.108;2022-11-21T08:23:07;4.00;;;2.50;;
5465;SDS011;2755;50.728;7.108;2022-11-21T08:25:35;4.77;;;2.77;;
5465;SDS011;2755;50.728;7.108;2022-11-21T08:28:02;3.13;;;2.80;;
5465;SDS011;2755;50.728;7.108;2022-11-21T08:30:27;4.50;;;2.30;;
5465;SDS011;2755;50.728;7.108;2022-11-21T08:32:53;2.77;;;2.20;;
5465;SDS011;2755;50.728;7.108;2022-11-21T08:35:19;2.87;;;2.00;;
5465;SDS011;2755;50.728;7.108;2022-11-21T08:37:44;3.53;;;2.40;;
5465;SDS011;2755;50.728;7.108;2022-11-21T08:40:10;3.77;;;1.70;;
5465;SDS011;2755;50.728;7.108;2022-11-21T08:42:36;3.53;;;2.37;;
5465;SDS011;2755;50.728;7.108;2022-11-21T08:45:03;4.40;;;2.20;;
5465;SDS011;2755;50.728;7.108;2022-11-21T08:47:31;5.30;;;2.00;;
5465;SDS011;2755;50.728;7.108;2022-11-21T08:49:57;6.37;;;1.80;;
5465;SDS011;2755;50.728;7.108;2022-11-21T08:52:23;7.17;;;1.97;;
5465;SDS011;2755;50.728;7.108;2022-11-21T08:54:49;3.00;;;1.97;;
5465;SDS011;2755;50.728;7.108;2022-11-21T08:57:14;3.07;;;1.70;;
5465;SDS011;2755;50.728;7.108;2022-11-21T08:59:40;3.10;;;2.17;;
5465;SDS011;2755;50.728;7.108;2022-11-21T09:02:05;4.60;;;2.10;;
5465;SDS011;2755;50.728;7.108;2022-11-21T09:04:33;2.00;;;1.60;;
5465;SDS011;2755;50.728;7.108;2022-11-21T09:06:59;2.23;;;1.23;;
5465;SDS011;2755;50.728;7.108;2022-11-21T09:09:26;7.33;;;1.87;;
5465;SDS011;2755;50.728;7.108;2022-11-21T09:11:51;2.93;;;1.80;;
5465;SDS011;2755;50.728;7.108;2022-11-21T09:14:17;2.23;;;1.17;;
5465;SDS011;2755;50.728;7.108;2022-11-21T09:17:01;2.43;;;1.50;;
5465;SDS011;2755;50.728;7.108;2022-11-21T09:19:45;3.13;;;1.73;;
5465;SDS011;2755;50.728;7.108;2022-11-21T09:22:11;3.00;;;1.17;;
5465;SDS011;2755;50.728;7.108;2022-11-21T09:24:37;2.43;;;1.13;;
5465;SDS011;2755;50.728;7.108;2022-11-21T09:27:02;3.10;;;1.40;;
5465;SDS011;2755;50.728;7.108;2022-11-21T09:29:28;4.33;;;0.90;;
5465;SDS011;2755;50.728;7.108;2022-11-21T09:31:54;3.37;;;1.20;;
5465;SDS011;2755;50.728;7.108;2022-11-21T09:34:19;3.00;;;1.13;;
5465;SDS011;2755;50.728;7.108;2022-11-21T09:36:45;1.93;;;1.10;;
5465;SDS011;2755;50.728;7.108;2022-11-21T09:39:10;1.13;;;0.70;;
5465;SDS011;2755;50.728;7.108;2022-11-21T09:42:21;2.70;;;1.00;;
5465;SDS011;2755;50.728;7.108;2022-11-21T09:47:25;2.50;;;1.00;;
5465;SDS011;2755;50.728;7.108;2022-11-21T09:52:38;3.23;;;0.87;;
5465;SDS011;2755;50.728;7.108;2022-11-21T09:55:15;1.33;;;0.73;;
5465;SDS011;2755;50.728;7.108;2022-11-21T09:57:46;0.90;;;0.60;;
5465;SDS011;2755;50.728;7.108;2022-11-21T10:00:20;1.97;;;0.70;;
5465;SDS011;2755;50.728;7.108;2022-11-21T10:02:48;1.30;;;0.83;;
5465;SDS011;2755;50.728;7.108;2022-11-21T10:05:15;1.50;;;0.97;;
5465;SDS011;2755;50.728;7.108;2022-11-21T10:07:41;1.97;;;0.73;;
5465;SDS011;2755;50.728;7.108;2022-11-21T10:16:09;1.57;;;0.80;;
5465;SDS011;2755;50.728;7.108;2022-11-21T10:19:08;0.90;;;0.53;;
5465;SDS011;2755;50.728;7.108;2022-11-21T10:21:50;1.20;;;0.70;;
5465;SDS011;2755;50.728;7.108;2022-11-21T10:30:46;3.63;;;0.60;;
5465;SDS011;2755;50.728;7.108;2022-11-21T10:33:20;2.63;;;0.80;;
5465;SDS011;2755;50.728;7.108;2022-11-21T10:35:56;2.60;;;0.90;;
5465;SDS011;2755;50.728;7.108;2022-11-21T10:38:26;2.13;;;0.70;;
5465;SDS011;2755;50.728;7.108;2022-11-21T10:41:07;0.90;;;0.60;;
5465;SDS011;2755;50.728;7.108;2022-11-21T10:43:55;1.40;;;0.80;;
5465;SDS011;2755;50.728;7.108;2022-11-21T10:46:53;2.93;;;0.90;;
5465;SDS011;2755;50.728;7.108;2022-11-21T10:49:20;1.10;;;0.90;;
5465;SDS011;2755;50.728;7.108;2022-11-21T10:51:50;2.80;;;1.00;;
5465;SDS011;2755;50.728;7.108;2022-11-21T10:54:23;1.47;;;0.80;;
5465;SDS011;2755;50.728;7.108;2022-11-21T10:57:11;1.70;;;0.90;;
5465;SDS011;2755;50.728;7.108;2022-11-21T11:00:27;3.80;;;1.00;;
5465;SDS011;2755;50.728;7.108;2022-11-21T11:02:37;1.10;;;0.90;;
5465;SDS011;2755;50.728;7.108;2022-11-21T11:05:16;1.70;;;0.70;;
5465;SDS011;2755;50.728;7.108;2022-11-21T11:10:25;2.13;;;1.10;;
5465;SDS011;2755;50.728;7.108;2022-11-21T11:12:51;9.00;;;0.80;;
5465;SDS011;2755;50.728;7.108;2022-11-21T11:15:36;2.07;;;0.80;;
5465;SDS011;2755;50.728;7.108;2022-11-21T11:18:18;3.93;;;1.20;;
5465;SDS011;2755;50.728;7.108;2022-11-21T11:20:46;1.87;;;0.87;;
5465;SDS011;2755;50.728;7.108;2022-11-21T11:23:32;1.00;;;0.80;;
5465;SDS011;2755;50.728;7.108;2022-11-21T11:25:58;1.17;;;0.70;;
5465;SDS011;2755;50.728;7.108;2022-11-21T11:28:24;1.23;;;0.60;;
5465;SDS011;2755;50.728;7.108;2022-11-21T11:30:57;3.60;;;1.07;;
5465;SDS011;2755;50.728;7.108;2022-11-21T11:38:52;3.83;;;0.70;;
5465;SDS011;2755;50.728;7.108;2022-11-21T11:44:23;3.37;;;1.03;;
5465;SDS011;2755;50.728;7.108;2022-11-21T11:47:23;2.10;;;1.00;;
5465;SDS011;2755;50.728;7.108;2022-11-21T11:49:57;6.43;;;1.30;;
5465;SDS011;2755;50.728;7.108;2022-11-21T11:58:20;1.47;;;0.80;;
5465;SDS011;2755;50.728;7.108;2022-11-21T12:00:49;2.10;;;0.90;;
5465;SDS011;2755;50.728;7.108;2022-11-21T12:03:42;2.90;;;1.30;;
5465;SDS011;2755;50.728;7.108;2022-11-21T12:06:15;2.40;;;1.10;;
5465;SDS011;2755;50.728;7.108;2022-11-21T12:08:52;2.40;;;1.30;;
5465;SDS011;2755;50.728;7.108;2022-11-21T12:11:57;3.30;;;1.40;;
5465;SDS011;2755;50.728;7.108;2022-11-21T12:18:11;4.33;;;0.87;;
5465;SDS011;2755;50.728;7.108;2022-11-21T12:23:44;4.40;;;1.23;;
5465;SDS011;2755;50.728;7.108;2022-11-21T12:31:55;2.50;;;0.93;;
5465;SDS011;2755;50.728;7.108;2022-11-21T12:34:50;3.17;;;1.50;;
5465;SDS011;2755;50.728;7.108;2022-11-21T12:37:47;5.40;;;1.40;;
5465;SDS011;2755;50.728;7.108;2022-11-21T12:40:36;3.43;;;1.30;;
5465;SDS011;2755;50.728;7.108;2022-11-21T12:43:28;3.47;;;0.97;;
5465;SDS011;2755;50.728;7.108;2022-11-21T12:49:04;2.30;;;0.90;;
5465;SDS011;2755;50.728;7.108;2022-11-21T12:52:23;4.20;;;1.10;;
5465;SDS011;2755;50.728;7.108;2022-11-21T13:01:21;3.73;;;1.07;;
5465;SDS011;2755;50.728;7.108;2022-11-21T13:05:52;2.50;;;1.07;;
5465;SDS011;2755;50.728;7.108;2022-11-21T13:08:22;6.50;;;1.10;;
5465;SDS011;2755;50.728;7.108;2022-11-21T13:13:44;2.20;;;1.00;;
5465;SDS011;2755;50.728;7.108;2022-11-21T13:16:15;2.57;;;0.90;;
5465;SDS011;2755;50.728;7.108;2022-11-21T13:19:00;6.27;;;1.00;;
5465;SDS011;2755;50.728;7.108;2022-11-21T13:21:39;5.23;;;1.07;;
5465;SDS011;2755;50.728;7.108;2022-11-21T13:24:05;2.13;;;1.00;;
5465;SDS011;2755;50.728;7.108;2022-11-21T13:29:06;3.60;;;1.77;;
5465;SDS011;2755;50.728;7.108;2022-11-21T13:31:35;3.63;;;1.30;;
5465;SDS011;2755;50.728;7.108;2022-11-21T13:34:02;3.67;;;1.40;;
5465;SDS011;2755;50.728;7.108;2022-11-21T13:54:55;5.20;;;1.13;;
5465;SDS011;2755;50.728;7.108;2022-11-21T13:57:43;3.73;;;1.30;;
5465;SDS011;2755;50.728;7.108;2022-11-21T14:03:07;3.03;;;1.00;;
5465;SDS011;2755;50.728;7.108;2022-11-21T14:08:21;2.10;;;1.20;;
5465;SDS011;2755;50.728;7.108;2022-11-21T14:10:49;1.43;;;1.07;;
5465;SDS011;2755;50.728;7.108;2022-11-21T14:13:19;9.30;;;1.37;;
5465;SDS011;2755;50.728;7.108;2022-11-21T14:18:30;2.90;;;1.57;;
5465;SDS011;2755;50.728;7.108;2022-11-21T14:20:57;3.47;;;1.00;;
5465;SDS011;2755;50.728;7.108;2022-11-21T14:23:25;2.07;;;1.20;;
5465;SDS011;2755;50.728;7.108;2022-11-21T14:25:58;2.80;;;1.00;;
5465;SDS011;2755;50.728;7.108;2022-11-21T14:28:34;2.80;;;1.47;;
5465;SDS011;2755;50.728;7.108;2022-11-21T14:31:00;9.80;;;1.73;;
5465;SDS011;2755;50.728;7.108;2022-11-21T14:33:31;11.83;;;1.90;;
5465;SDS011;2755;50.728;7.108;2022-11-21T14:36:06;3.57;;;1.40;;
5465;SDS011;2755;50.728;7.108;2022-11-21T14:38:46;3.10;;;1.97;;
5465;SDS011;2755;50.728;7.108;2022-11-21T14:41:22;4.10;;;1.40;;
5465;SDS011;2755;50.728;7.108;2022-11-21T14:46:25;4.00;;;1.40;;
5465;SDS011;2755;50.728;7.108;2022-11-21T14:48:55;4.77;;;1.50;;
5465;SDS011;2755;50.728;7.108;2022-11-21T14:51:22;7.90;;;1.50;;
5465;SDS011;2755;50.728;7.108;2022-11-21T14:53:49;5.27;;;1.63;;
5465;SDS011;2755;50.728;7.108;2022-11-21T14:56:24;2.57;;;1.77;;
5465;SDS011;2755;50.728;7.108;2022-11-21T14:58:53;7.00;;;1.80;;
5465;SDS011;2755;50.728;7.108;2022-11-21T15:01:27;5.40;;;1.93;;
5465;SDS011;2755;50.728;7.108;2022-11-21T15:04:00;6.20;;;2.00;;
5465;SDS011;2755;50.728;7.108;2022-11-21T15:06:39;6.53;;;2.57;;
5465;SDS011;2755;50.728;7.108;2022-11-21T15:09:10;5.23;;;1.57;;
5465;SDS011;2755;50.728;7.108;2022-11-21T15:11:39;7.40;;;2.07;;
5465;SDS011;2755;50.728;7.108;2022-11-21T15:14:06;4.87;;;2.20;;
5465;SDS011;2755;50.728;7.108;2022-11-21T15:16:43;7.60;;;1.93;;
5465;SDS011;2755;50.728;7.108;2022-11-21T15:19:16;8.00;;;2.10;;
5465;SDS011;2755;50.728;7.108;2022-11-21T15:21:51;6.63;;;1.73;;
5465;SDS011;2755;50.728;7.108;2022-11-21T15:24:28;7.87;;;1.97;;
5465;SDS011;2755;50.728;7.108;2022-11-21T15:26:56;6.57;;;2.43;;
5465;SDS011;2755;50.728;7.108;2022-11-21T15:29:22;10.67;;;2.23;;
5465;SDS011;2755;50.728;7.108;2022-11-21T15:34:34;11.27;;;4.83;;
5465;SDS011;2755;50.728;7.108;2022-11-21T15:37:04;11.63;;;2.50;;
5465;SDS011;2755;50.728;7.108;2022-11-21T15:39:32;12.23;;;2.50;;
5465;SDS011;2755;50.728;7.108;2022-11-21T15:47:38;4.80;;;2.10;;
5465;SDS011;2755;50.728;7.108;2022-11-21T15:50:04;5.30;;;1.87;;
5465;SDS011;2755;50.728;7.108;2022-11-21T15:52:30;10.90;;;2.03;;
5465;SDS011;2755;50.728;7.108;2022-11-21T15:54:56;7.30;;;2.10;;
5465;SDS011;2755;50.728;7.108;2022-11-21T15:57:22;3.93;;;2.03;;
5465;SDS011;2755;50.728;7.108;2022-11-21T15:59:48;8.57;;;2.27;;
5465;SDS011;2755;50.728;7.108;2022-11-21T16:02:13;9.53;;;2.60;;
5465;SDS011;2755;50.728;7.108;2022-11-21T16:04:40;7.37;;;2.10;;
5465;SDS011;2755;50.728;7.108;2022-11-21T16:07:05;8.73;;;2.20;;
5465;SDS011;2755;50.728;7.108;2022-11-21T16:09:31;7.23;;;2.23;;
5465;SDS011;2755;50.728;7.108;2022-11-21T16:11:57;4.10;;;1.97;;
5465;SDS011;2755;50.728;7.108;2022-11-21T16:14:23;5.50;;;1.97;;
5465;SDS011;2755;50.728;7.108;2022-11-21T16:16:49;8.20;;;2.30;;
5465;SDS011;2755;50.728;7.108;2022-11-21T16:19:14;6.43;;;2.20;;
5465;SDS011;2755;50.728;7.108;2022-11-21T16:21:40;7.97;;;2.00;;
5465;SDS011;2755;50.728;7.108;2022-11-21T16:24:06;6.37;;;2.20;;
5465;SDS011;2755;50.728;7.108;2022-11-21T16:26:32;4.53;;;2.47;;
5465;SDS011;2755;50.728;7.108;2022-11-21T16:28:58;8.87;;;1.97;;
5465;SDS011;2755;50.728;7.108;2022-11-21T16:31:25;4.83;;;2.70;;
5465;SDS011;2755;50.728;7.108;2022-11-21T16:33:52;10.90;;;2.70;;
5465;SDS011;2755;50.728;7.108;2022-11-21T16:36:18;4.97;;;2.50;;
5465;SDS011;2755;50.728;7.108;2022-11-21T16:38:45;6.03;;;2.20;;
5465;SDS011;2755;50.728;7.108;2022-11-21T16:41:10;9.60;;;3.07;;
5465;SDS011;2755;50.728;7.108;2022-11-21T16:43:36;3.47;;;2.17;;
5465;SDS011;2755;50.728;7.108;2022-11-21T16:46:10;6.33;;;2.37;;
5465;SDS011;2755;50.728;7.108;2022-11-21T16:48:37;3.90;;;2.03;;
5465;SDS011;2755;50.728;7.108;2022-11-21T16:51:13;9.90;;;2.83;;
5465;SDS011;2755;50.728;7.108;2022-11-21T16:53:39;4.90;;;2.00;;
5465;SDS011;2755;50.728;7.108;2022-11-21T16:56:05;3.80;;;2.07;;
5465;SDS011;2755;50.728;7.108;2022-11-21T16:58:32;8.73;;;2.30;;
5465;SDS011;2755;50.728;7.108;2022-11-21T17:01:05;7.87;;;2.60;;
5465;SDS011;2755;50.728;7.108;2022-11-21T17:03:42;6.60;;;2.97;;
5465;SDS011;2755;50.728;7.108;2022-11-21T17:06:09;7.73;;;1.97;;
5465;SDS011;2755;50.728;7.108;2022-11-21T17:08:35;11.57;;;1.97;;
5465;SDS011;2755;50.728;7.108;2022-11-21T17:11:14;5.60;;;2.00;;
5465;SDS011;2755;50.728;7.108;2022-11-21T17:13:40;4.63;;;1.93;;
5465;SDS011;2755;50.728;7.108;2022-11-21T17:16:07;4.07;;;2.77;;
5465;SDS011;2755;50.728;7.108;2022-11-21T17:18:34;12.63;;;2.30;;
5465;SDS011;2755;50.728;7.108;2022-11-21T17:21:09;6.33;;;2.50;;